sensor_id;sensor_type;location;lat;lon;timestamp;P1;durP1;ratioP1;P2;durP2;ratioP2
59986;SDS011;46181;51.498;5.392;2023-10-13T00:00:17;0;;;0;;
59986;SDS011;46181;51.498;5.392;2023-10-13T00:04:46;0;;;0;;
59986;SDS011;46181;51.498;5.392;2023-10-13T00:09:16;0;;;0;;
59986;SDS011;46181;51.498;5.392;2023-10-13T00:13:46;0.172;;;0.164;;
59986;SDS011;46181;51.498;5.392;2023-10-13T00:18:16;0.016;;;0.016;;
59986;SDS011;46181;51.498;5.392;2023-10-13T00:22:46;0;;;0;;
59986;SDS011;46181;51.498;5.392;2023-10-13T00:27:16;0.016;;;0.016;;
59986;SDS011;46181;51.498;5.392;2023-10-13T00:31:46;0.016;;;0.016;;
59986;SDS011;46181;51.498;5.392;2023-10-13T00:36:16;0;;;0;;
59986;SDS011;46181;51.498;5.392;2023-10-13T00:40:46;0.016;;;0.016;;
59986;SDS011;46181;51.498;5.392;2023-10-13T00:45:16;0;;;0;;
59986;SDS011;46181;51.498;5.392;2023-10-13T00:49:47;0.016;;;0.016;;
59986;SDS011;46181;51.498;5.392;2023-10-13T00:54:16;0.1;;;0.1;;
59986;SDS011;46181;51.498;5.392;2023-10-13T00:58:46;0;;;0;;
59986;SDS011;46181;51.498;5.392;2023-10-13T01:03:16;0.016;;;0.016;;
59986;SDS011;46181;51.498;5.392;2023-10-13T01:07:46;0;;;0;;
59986;SDS011;46181;51.498;5.392;2023-10-13T01:12:16;0.144;;;0.144;;
59986;SDS011;46181;51.498;5.392;2023-10-13T01:16:46;0;;;0;;
59986;SDS011;46181;51.498;5.392;2023-10-13T01:21:16;0;;;0;;
59986;SDS011;46181;51.498;5.392;2023-10-13T01:25:46;0;;;0;;
59986;SDS011;46181;51.498;5.392;2023-10-13T01:30:16;0;;;0;;
59986;SDS011;46181;51.498;5.392;2023-10-13T01:34:46;0;;;0;;
59986;SDS011;46181;51.498;5.392;2023-10-13T01:39:16;0.028;;;0.028;;
59986;SDS011;46181;51.498;5.392;2023-10-13T01:43:46;0;;;0;;
59986;SDS011;46181;51.498;5.392;2023-10-13T01:48:16;0;;;0;;
59986;SDS011;46181;51.498;5.392;2023-10-13T01:52:46;0.016;;;0.016;;
59986;SDS011;46181;51.498;5.392;2023-10-13T01:57:16;0.052;;;0.052;;
59986;SDS011;46181;51.498;5.392;2023-10-13T02:01:46;0.1;;;0.1;;
59986;SDS011;46181;51.498;5.392;2023-10-13T02:06:16;0.056;;;0.056;;
59986;SDS011;46181;51.498;5.392;2023-10-13T02:10:46;0.016;;;0.016;;
59986;SDS011;46181;51.498;5.392;2023-10-13T02:15:16;0.032;;;0.032;;
59986;SDS011;46181;51.498;5.392;2023-10-13T02:19:46;0.016;;;0.016;;
59986;SDS011;46181;51.498;5.392;2023-10-13T02:24:16;0.1;;;0.1;;
59986;SDS011;46181;51.498;5.392;2023-10-13T02:28:46;0.016;;;0.016;;
59986;SDS011;46181;51.498;5.392;2023-10-13T02:33:16;0.1;;;0.1;;
59986;SDS011;46181;51.498;5.392;2023-10-13T02:37:46;0.1;;;0.1;;
59986;SDS011;46181;51.498;5.392;2023-10-13T02:42:16;0;;;0;;
59986;SDS011;46181;51.498;5.392;2023-10-13T02:46:46;0;;;0;;
59986;SDS011;46181;51.498;5.392;2023-10-13T02:51:16;0.016;;;0.016;;
59986;SDS011;46181;51.498;5.392;2023-10-13T02:55:54;0.1;;;0.1;;
59986;SDS011;46181;51.498;5.392;2023-10-13T03:00:17;0;;;0;;
59986;SDS011;46181;51.498;5.392;2023-10-13T03:04:47;0;;;0;;
59986;SDS011;46181;51.498;5.392;2023-10-13T03:09:16;0.016;;;0.016;;
59986;SDS011;46181;51.498;5.392;2023-10-13T03:13:46;0;;;0;;
59986;SDS011;46181;51.498;5.392;2023-10-13T03:18:16;0.1;;;0.1;;
59986;SDS011;46181;51.498;5.392;2023-10-13T03:22:46;0.016;;;0.016;;
59986;SDS011;46181;51.498;5.392;2023-10-13T03:27:17;0.1;;;0.1;;
59986;SDS011;46181;51.498;5.392;2023-10-13T03:31:46;0.1;;;0.1;;
59986;SDS011;46181;51.498;5.392;2023-10-13T03:36:17;0.016;;;0.016;;
59986;SDS011;46181;51.498;5.392;2023-10-13T03:40:49;0.1;;;0.1;;
59986;SDS011;46181;51.498;5.392;2023-10-13T03:45:16;0;;;0;;
59986;SDS011;46181;51.498;5.392;2023-10-13T03:49:46;0.016;;;0.016;;
59986;SDS011;46181;51.498;5.392;2023-10-13T03:54:16;0.032;;;0.032;;
59986;SDS011;46181;51.498;5.392;2023-10-13T03:58:46;0.104;;;0.104;;
59986;SDS011;46181;51.498;5.392;2023-10-13T04:03:16;0.1;;;0.1;;
59986;SDS011;46181;51.498;5.392;2023-10-13T04:07:46;0;;;0;;
59986;SDS011;46181;51.498;5.392;2023-10-13T04:12:16;0.1;;;0.1;;
59986;SDS011;46181;51.498;5.392;2023-10-13T04:16:46;0.2;;;0.2;;
59986;SDS011;46181;51.498;5.392;2023-10-13T04:21:16;0.1;;;0.1;;
59986;SDS011;46181;51.498;5.392;2023-10-13T04:25:46;0.1;;;0.1;;
59986;SDS011;46181;51.498;5.392;2023-10-13T04:30:16;0.2;;;0.2;;
59986;SDS011;46181;51.498;5.392;2023-10-13T04:34:47;0.016;;;0.016;;
59986;SDS011;46181;51.498;5.392;2023-10-13T04:39:16;0.1;;;0.1;;
59986;SDS011;46181;51.498;5.392;2023-10-13T04:43:46;0;;;0;;
59986;SDS011;46181;51.498;5.392;2023-10-13T04:48:16;0.128;;;0.128;;
59986;SDS011;46181;51.498;5.392;2023-10-13T04:52:46;0.144;;;0.144;;
59986;SDS011;46181;51.498;5.392;2023-10-13T04:57:17;0.076;;;0.076;;
59986;SDS011;46181;51.498;5.392;2023-10-13T05:01:46;0;;;0;;
59986;SDS011;46181;51.498;5.392;2023-10-13T05:06:16;0.06;;;0.06;;
59986;SDS011;46181;51.498;5.392;2023-10-13T05:10:46;0.016;;;0.016;;
59986;SDS011;46181;51.498;5.392;2023-10-13T05:15:16;0.116;;;0.116;;
59986;SDS011;46181;51.498;5.392;2023-10-13T05:19:46;0.06;;;0.06;;
59986;SDS011;46181;51.498;5.392;2023-10-13T05:24:16;0;;;0;;
59986;SDS011;46181;51.498;5.392;2023-10-13T05:28:46;0;;;0;;
59986;SDS011;46181;51.498;5.392;2023-10-13T05:33:16;0;;;0;;
59986;SDS011;46181;51.498;5.392;2023-10-13T05:37:46;0;;;0;;
59986;SDS011;46181;51.498;5.392;2023-10-13T05:42:16;0.1;;;0.1;;
59986;SDS011;46181;51.498;5.392;2023-10-13T05:46:46;0;;;0;;
59986;SDS011;46181;51.498;5.392;2023-10-13T05:51:16;0.1;;;0.1;;
59986;SDS011;46181;51.498;5.392;2023-10-13T05:55:46;0.016;;;0.016;;
59986;SDS011;46181;51.498;5.392;2023-10-13T06:00:17;0.1;;;0.1;;
59986;SDS011;46181;51.498;5.392;2023-10-13T06:04:46;0.1;;;0.1;;
59986;SDS011;46181;51.498;5.392;2023-10-13T06:09:16;0.036;;;0.036;;
59986;SDS011;46181;51.498;5.392;2023-10-13T06:13:46;0.1;;;0.1;;
59986;SDS011;46181;51.498;5.392;2023-10-13T06:18:16;0.056;;;0.056;;
59986;SDS011;46181;51.498;5.392;2023-10-13T06:22:46;0.1;;;0.1;;
59986;SDS011;46181;51.498;5.392;2023-10-13T06:27:16;0.024;;;0.024;;
59986;SDS011;46181;51.498;5.392;2023-10-13T06:31:46;0.1;;;0.1;;
59986;SDS011;46181;51.498;5.392;2023-10-13T06:36:16;1.032;;;0.26;;
59986;SDS011;46181;51.498;5.392;2023-10-13T06:40:48;0.208;;;0.16;;
59986;SDS011;46181;51.498;5.392;2023-10-13T06:45:16;0.032;;;0.032;;
59986;SDS011;46181;51.498;5.392;2023-10-13T06:49:46;0.1;;;0.1;;
59986;SDS011;46181;51.498;5.392;2023-10-13T06:54:16;0.1;;;0.1;;
59986;SDS011;46181;51.498;5.392;2023-10-13T06:58:47;0;;;0;;
59986;SDS011;46181;51.498;5.392;2023-10-13T07:03:16;0.1;;;0.1;;
59986;SDS011;46181;51.498;5.392;2023-10-13T07:07:46;0.016;;;0.016;;
59986;SDS011;46181;51.498;5.392;2023-10-13T07:12:16;0.032;;;0.032;;
59986;SDS011;46181;51.498;5.392;2023-10-13T07:16:55;0.012;;;0.012;;
59986;SDS011;46181;51.498;5.392;2023-10-13T07:21:16;0.076;;;0.076;;
59986;SDS011;46181;51.498;5.392;2023-10-13T07:25:50;0;;;0;;
59986;SDS011;46181;51.498;5.392;2023-10-13T07:30:17;0.1;;;0.1;;
59986;SDS011;46181;51.498;5.392;2023-10-13T07:34:46;0.016;;;0.016;;
59986;SDS011;46181;51.498;5.392;2023-10-13T07:39:16;0.052;;;0.052;;
59986;SDS011;46181;51.498;5.392;2023-10-13T07:43:46;0;;;0;;
59986;SDS011;46181;51.498;5.392;2023-10-13T07:48:16;0.1;;;0.1;;
59986;SDS011;46181;51.498;5.392;2023-10-13T07:52:46;0;;;0;;
59986;SDS011;46181;51.498;5.392;2023-10-13T07:57:17;0;;;0;;
59986;SDS011;46181;51.498;5.392;2023-10-13T08:01:46;0;;;0;;
59986;SDS011;46181;51.498;5.392;2023-10-13T08:06:17;0;;;0;;
59986;SDS011;46181;51.498;5.392;2023-10-13T08:10:46;0.284;;;0.18;;
59986;SDS011;46181;51.498;5.392;2023-10-13T08:15:17;0.812;;;0.12;;
59986;SDS011;46181;51.498;5.392;2023-10-13T08:19:46;0.048;;;0.048;;
59986;SDS011;46181;51.498;5.392;2023-10-13T08:24:16;1.5;;;0.148;;
59986;SDS011;46181;51.498;5.392;2023-10-13T08:28:46;0.08;;;0.08;;
59986;SDS011;46181;51.498;5.392;2023-10-13T08:33:16;0.024;;;0.024;;
59986;SDS011;46181;51.498;5.392;2023-10-13T08:37:46;0.1;;;0.1;;
59986;SDS011;46181;51.498;5.392;2023-10-13T08:42:16;0.3;;;0.3;;
59986;SDS011;46181;51.498;5.392;2023-10-13T08:46:46;0.156;;;0.156;;
59986;SDS011;46181;51.498;5.392;2023-10-13T08:51:16;0.216;;;0.136;;
59986;SDS011;46181;51.498;5.392;2023-10-13T08:55:46;0.1;;;0.1;;
59986;SDS011;46181;51.498;5.392;2023-10-13T09:00:17;0.068;;;0.068;;
59986;SDS011;46181;51.498;5.392;2023-10-13T09:04:47;0;;;0;;
59986;SDS011;46181;51.498;5.392;2023-10-13T09:09:16;0.092;;;0.092;;
59986;SDS011;46181;51.498;5.392;2023-10-13T09:13:46;0.552;;;0.544;;
59986;SDS011;46181;51.498;5.392;2023-10-13T09:18:16;0.1;;;0.1;;
59986;SDS011;46181;51.498;5.392;2023-10-13T09:22:47;0;;;0;;
59986;SDS011;46181;51.498;5.392;2023-10-13T09:27:16;0.096;;;0.096;;
59986;SDS011;46181;51.498;5.392;2023-10-13T09:31:47;0.108;;;0.108;;
59986;SDS011;46181;51.498;5.392;2023-10-13T09:36:16;0.1;;;0.1;;
59986;SDS011;46181;51.498;5.392;2023-10-13T09:40:46;0.108;;;0.108;;
59986;SDS011;46181;51.498;5.392;2023-10-13T09:45:16;0.1;;;0.1;;
59986;SDS011;46181;51.498;5.392;2023-10-13T09:49:47;0.1;;;0.1;;
59986;SDS011;46181;51.498;5.392;2023-10-13T09:54:18;0;;;0;;
59986;SDS011;46181;51.498;5.392;2023-10-13T09:58:51;0;;;0;;
59986;SDS011;46181;51.498;5.392;2023-10-13T10:03:16;0.1;;;0.1;;
59986;SDS011;46181;51.498;5.392;2023-10-13T10:07:53;0.064;;;0.064;;
59986;SDS011;46181;51.498;5.392;2023-10-13T10:12:19;0.428;;;0.16;;
59986;SDS011;46181;51.498;5.392;2023-10-13T10:21:17;0.1;;;0.1;;
59986;SDS011;46181;51.498;5.392;2023-10-13T10:25:47;0.016;;;0.016;;
59986;SDS011;46181;51.498;5.392;2023-10-13T10:30:23;0.1;;;0.1;;
59986;SDS011;46181;51.498;5.392;2023-10-13T10:34:47;0.1;;;0.1;;
59986;SDS011;46181;51.498;5.392;2023-10-13T10:39:17;0;;;0;;
59986;SDS011;46181;51.498;5.392;2023-10-13T10:43:47;0.208;;;0.208;;
59986;SDS011;46181;51.498;5.392;2023-10-13T10:48:17;0.216;;;0.216;;
59986;SDS011;46181;51.498;5.392;2023-10-13T10:52:47;0.132;;;0.132;;
59986;SDS011;46181;51.498;5.392;2023-10-13T10:57:17;0.16;;;0.16;;
59986;SDS011;46181;51.498;5.392;2023-10-13T11:01:47;17.884;;;5.732001;;
59986;SDS011;46181;51.498;5.392;2023-10-13T11:06:17;16.432;;;5.888001;;
59986;SDS011;46181;51.498;5.392;2023-10-13T11:10:49;13.404;;;5.284001;;
59986;SDS011;46181;51.498;5.392;2023-10-13T11:15:17;12.752;;;5.632;;
59986;SDS011;46181;51.498;5.392;2023-10-13T11:19:47;11.972;;;5.591999;;
59986;SDS011;46181;51.498;5.392;2023-10-13T11:24:17;12.628;;;5.492;;
59986;SDS011;46181;51.498;5.392;2023-10-13T11:28:53;13.228;;;6.06;;
59986;SDS011;46181;51.498;5.392;2023-10-13T11:33:17;16.792;;;5.571999;;
59986;SDS011;46181;51.498;5.392;2023-10-13T11:37:47;14.548;;;5.880001;;
59986;SDS011;46181;51.498;5.392;2023-10-13T11:42:17;14.02;;;5.900001;;
59986;SDS011;46181;51.498;5.392;2023-10-13T11:46:47;15.42;;;5.992;;
59986;SDS011;46181;51.498;5.392;2023-10-13T11:51:17;14.884;;;5.756001;;
59986;SDS011;46181;51.498;5.392;2023-10-13T11:55:47;16.98;;;6.091999;;
59986;SDS011;46181;51.498;5.392;2023-10-13T12:00:17;16.336;;;5.615999;;
59986;SDS011;46181;51.498;5.392;2023-10-13T12:04:47;12.352;;;5.392001;;
59986;SDS011;46181;51.498;5.392;2023-10-13T12:09:17;15.072;;;5.075999;;
59986;SDS011;46181;51.498;5.392;2023-10-13T12:13:47;11.908;;;5.023999;;
59986;SDS011;46181;51.498;5.392;2023-10-13T12:18:17;12.432;;;5.184;;
59986;SDS011;46181;51.498;5.392;2023-10-13T12:22:47;14.108;;;5.204;;
59986;SDS011;46181;51.498;5.392;2023-10-13T12:27:17;13.4;;;5.232;;
59986;SDS011;46181;51.498;5.392;2023-10-13T12:31:47;18.344;;;4.592;;
59986;SDS011;46181;51.498;5.392;2023-10-13T12:36:17;14.376;;;5.703999;;
59986;SDS011;46181;51.498;5.392;2023-10-13T12:40:47;15.232;;;4.948;;
59986;SDS011;46181;51.498;5.392;2023-10-13T12:45:17;15.424;;;4.888001;;
59986;SDS011;46181;51.498;5.392;2023-10-13T12:49:47;14.56;;;4.724;;
59986;SDS011;46181;51.498;5.392;2023-10-13T12:54:17;15.328;;;4.688;;
59986;SDS011;46181;51.498;5.392;2023-10-13T12:58:47;15.696;;;4.972;;
59986;SDS011;46181;51.498;5.392;2023-10-13T13:03:17;10.572;;;4.452001;;
59986;SDS011;46181;51.498;5.392;2023-10-13T13:07:47;17.512;;;5.119999;;
59986;SDS011;46181;51.498;5.392;2023-10-13T13:12:17;10.872;;;4.14;;
59986;SDS011;46181;51.498;5.392;2023-10-13T13:16:47;16.328;;;4.312;;
59986;SDS011;46181;51.498;5.392;2023-10-13T13:21:17;12.364;;;3.74;;
59986;SDS011;46181;51.498;5.392;2023-10-13T13:25:48;12.592;;;3.876001;;
59986;SDS011;46181;51.498;5.392;2023-10-13T13:30:17;11.28;;;3.556;;
59986;SDS011;46181;51.498;5.392;2023-10-13T13:34:47;9.708;;;3.368001;;
59986;SDS011;46181;51.498;5.392;2023-10-13T13:39:17;11.388;;;4.368001;;
59986;SDS011;46181;51.498;5.392;2023-10-13T13:43:47;11.46;;;3.888001;;
59986;SDS011;46181;51.498;5.392;2023-10-13T13:48:17;12.384;;;4.132;;
59986;SDS011;46181;51.498;5.392;2023-10-13T13:52:47;9.980001;;;3.820001;;
59986;SDS011;46181;51.498;5.392;2023-10-13T13:57:17;13.952;;;3.864;;
59986;SDS011;46181;51.498;5.392;2023-10-13T14:01:47;11.292;;;3.748001;;
59986;SDS011;46181;51.498;5.392;2023-10-13T14:06:17;11.48;;;3.876;;
59986;SDS011;46181;51.498;5.392;2023-10-13T14:10:47;11;;;3.964;;
59986;SDS011;46181;51.498;5.392;2023-10-13T14:15:17;9.86;;;4.380001;;
59986;SDS011;46181;51.498;5.392;2023-10-13T14:19:47;12.62;;;4.164;;
59986;SDS011;46181;51.498;5.392;2023-10-13T14:24:17;15.424;;;4.023999;;
59986;SDS011;46181;51.498;5.392;2023-10-13T14:28:47;12;;;4.067999;;
59986;SDS011;46181;51.498;5.392;2023-10-13T14:33:17;12.244;;;4.183999;;
59986;SDS011;46181;51.498;5.392;2023-10-13T14:37:47;11.128;;;4.143999;;
59986;SDS011;46181;51.498;5.392;2023-10-13T14:42:17;14.648;;;4.119999;;
59986;SDS011;46181;51.498;5.392;2023-10-13T14:46:47;14.28;;;3.888;;
59986;SDS011;46181;51.498;5.392;2023-10-13T14:51:17;11.384;;;3.983999;;
59986;SDS011;46181;51.498;5.392;2023-10-13T14:55:47;11.984;;;3.868;;
59986;SDS011;46181;51.498;5.392;2023-10-13T15:00:18;12.908;;;4.752;;
59986;SDS011;46181;51.498;5.392;2023-10-13T15:04:47;13.32;;;4.112;;
59986;SDS011;46181;51.498;5.392;2023-10-13T15:09:17;11.432;;;6.412001;;
59986;SDS011;46181;51.498;5.392;2023-10-13T15:13:47;14.292;;;5.727999;;
59986;SDS011;46181;51.498;5.392;2023-10-13T15:18:17;13.916;;;4.392;;
59986;SDS011;46181;51.498;5.392;2023-10-13T15:22:47;14.04;;;4.288;;
59986;SDS011;46181;51.498;5.392;2023-10-13T15:27:17;13.536;;;4.639999;;
59986;SDS011;46181;51.498;5.392;2023-10-13T15:31:47;10.56;;;4.015999;;
59986;SDS011;46181;51.498;5.392;2023-10-13T15:36:17;10.164;;;4.591999;;
59986;SDS011;46181;51.498;5.392;2023-10-13T15:40:47;10.532;;;4.396;;
59986;SDS011;46181;51.498;5.392;2023-10-13T15:45:17;9.292002;;;3.804;;
59986;SDS011;46181;51.498;5.392;2023-10-13T15:49:47;11.32;;;4.92;;
59986;SDS011;46181;51.498;5.392;2023-10-13T15:54:17;12.084;;;4.46;;
59986;SDS011;46181;51.498;5.392;2023-10-13T15:58:47;12.504;;;4.308001;;
59986;SDS011;46181;51.498;5.392;2023-10-13T16:03:17;11.444;;;4.392;;
59986;SDS011;46181;51.498;5.392;2023-10-13T16:07:47;9.912002;;;4.416;;
59986;SDS011;46181;51.498;5.392;2023-10-13T16:12:17;10.488;;;4.212;;
59986;SDS011;46181;51.498;5.392;2023-10-13T16:16:48;11.008;;;4.364;;
59986;SDS011;46181;51.498;5.392;2023-10-13T16:21:17;9.372;;;4.244;;
59986;SDS011;46181;51.498;5.392;2023-10-13T16:25:47;11.06;;;3.98;;
59986;SDS011;46181;51.498;5.392;2023-10-13T16:30:17;10.024;;;4.336;;
59986;SDS011;46181;51.498;5.392;2023-10-13T16:34:47;11.088;;;4.788001;;
59986;SDS011;46181;51.498;5.392;2023-10-13T16:39:17;10.644;;;4.376;;
59986;SDS011;46181;51.498;5.392;2023-10-13T16:43:47;11.42;;;4.532001;;
59986;SDS011;46181;51.498;5.392;2023-10-13T16:48:17;9.94;;;4.424;;
59986;SDS011;46181;51.498;5.392;2023-10-13T16:52:47;10.992;;;4.527999;;
59986;SDS011;46181;51.498;5.392;2023-10-13T16:57:17;12.616;;;4.776001;;
59986;SDS011;46181;51.498;5.392;2023-10-13T17:01:47;9.864001;;;5.312001;;
59986;SDS011;46181;51.498;5.392;2023-10-13T17:06:17;11.868;;;5.376;;
59986;SDS011;46181;51.498;5.392;2023-10-13T17:10:47;11.62;;;5.104;;
59986;SDS011;46181;51.498;5.392;2023-10-13T17:15:17;13.54;;;5.452;;
59986;SDS011;46181;51.498;5.392;2023-10-13T17:19:47;15.856;;;5.864;;
59986;SDS011;46181;51.498;5.392;2023-10-13T17:24:17;13.652;;;5.980001;;
59986;SDS011;46181;51.498;5.392;2023-10-13T17:28:47;13.716;;;6.676;;
59986;SDS011;46181;51.498;5.392;2023-10-13T17:33:17;13.192;;;5.884001;;
59986;SDS011;46181;51.498;5.392;2023-10-13T17:37:47;12.492;;;6.107998;;
59986;SDS011;46181;51.498;5.392;2023-10-13T17:42:17;17.496;;;6.452001;;
59986;SDS011;46181;51.498;5.392;2023-10-13T17:46:47;11.54;;;5.848001;;
59986;SDS011;46181;51.498;5.392;2023-10-13T17:51:17;15.248;;;6.696001;;
59986;SDS011;46181;51.498;5.392;2023-10-13T17:55:47;11.904;;;6.192;;
59986;SDS011;46181;51.498;5.392;2023-10-13T18:00:17;13.208;;;5.916001;;
59986;SDS011;46181;51.498;5.392;2023-10-13T18:04:47;13.256;;;7.056;;
59986;SDS011;46181;51.498;5.392;2023-10-13T18:09:17;15.088;;;6.012;;
59986;SDS011;46181;51.498;5.392;2023-10-13T18:13:47;14.212;;;6.719999;;
59986;SDS011;46181;51.498;5.392;2023-10-13T18:18:17;13.132;;;6.400001;;
59986;SDS011;46181;51.498;5.392;2023-10-13T18:22:47;19.424;;;6.860001;;
59986;SDS011;46181;51.498;5.392;2023-10-13T18:27:17;14.24;;;6.404;;
59986;SDS011;46181;51.498;5.392;2023-10-13T18:31:47;14.984;;;6.579999;;
59986;SDS011;46181;51.498;5.392;2023-10-13T18:36:17;18.24;;;6.300001;;
59986;SDS011;46181;51.498;5.392;2023-10-13T18:40:47;11.8;;;6.264;;
59986;SDS011;46181;51.498;5.392;2023-10-13T18:45:19;14.768;;;5.792001;;
59986;SDS011;46181;51.498;5.392;2023-10-13T18:49:47;13.964;;;6.272;;
59986;SDS011;46181;51.498;5.392;2023-10-13T18:54:17;11.944;;;5.904001;;
59986;SDS011;46181;51.498;5.392;2023-10-13T18:58:47;10.024;;;5.723999;;
59986;SDS011;46181;51.498;5.392;2023-10-13T19:03:17;10.636;;;6.088;;
59986;SDS011;46181;51.498;5.392;2023-10-13T19:07:47;10.416;;;6.187999;;
59986;SDS011;46181;51.498;5.392;2023-10-13T19:12:17;13.252;;;6.599999;;
59986;SDS011;46181;51.498;5.392;2023-10-13T19:16:47;14.456;;;6.928;;
59986;SDS011;46181;51.498;5.392;2023-10-13T19:21:18;16.168;;;7.488;;
59986;SDS011;46181;51.498;5.392;2023-10-13T19:25:47;14.152;;;6.664;;
59986;SDS011;46181;51.498;5.392;2023-10-13T19:30:17;15.36;;;6.607999;;
59986;SDS011;46181;51.498;5.392;2023-10-13T19:34:47;14.104;;;6.988;;
59986;SDS011;46181;51.498;5.392;2023-10-13T19:39:17;12.86;;;6.388001;;
59986;SDS011;46181;51.498;5.392;2023-10-13T19:43:48;13.768;;;6.304001;;
59986;SDS011;46181;51.498;5.392;2023-10-13T19:48:17;13.348;;;6.236001;;
59986;SDS011;46181;51.498;5.392;2023-10-13T19:52:47;14.692;;;6.748;;
59986;SDS011;46181;51.498;5.392;2023-10-13T19:57:17;16.96;;;7.251999;;
59986;SDS011;46181;51.498;5.392;2023-10-13T20:01:47;15.392;;;7.504;;
59986;SDS011;46181;51.498;5.392;2023-10-13T20:06:17;15.872;;;7.468;;
59986;SDS011;46181;51.498;5.392;2023-10-13T20:10:47;14.392;;;7.596;;
59986;SDS011;46181;51.498;5.392;2023-10-13T20:15:17;15.716;;;7.752;;
59986;SDS011;46181;51.498;5.392;2023-10-13T20:19:47;15.364;;;8.584;;
59986;SDS011;46181;51.498;5.392;2023-10-13T20:24:17;14.736;;;8.244;;
59986;SDS011;46181;51.498;5.392;2023-10-13T20:28:47;16.488;;;8.139999;;
59986;SDS011;46181;51.498;5.392;2023-10-13T20:33:17;16.2;;;7.88;;
59986;SDS011;46181;51.498;5.392;2023-10-13T20:37:47;13.36;;;8.048001;;
59986;SDS011;46181;51.498;5.392;2023-10-13T20:42:17;17.036;;;7.727999;;
59986;SDS011;46181;51.498;5.392;2023-10-13T20:46:47;16.256;;;7.588;;
59986;SDS011;46181;51.498;5.392;2023-10-13T20:51:17;17.008;;;7.416;;
59986;SDS011;46181;51.498;5.392;2023-10-13T20:55:47;17.084;;;7.411998;;
59986;SDS011;46181;51.498;5.392;2023-10-13T21:00:17;14.992;;;7.564002;;
59986;SDS011;46181;51.498;5.392;2023-10-13T21:04:47;14.56;;;8.060001;;
59986;SDS011;46181;51.498;5.392;2023-10-13T21:09:17;13.444;;;7.375999;;
59986;SDS011;46181;51.498;5.392;2023-10-13T21:13:47;15.928;;;6.731998;;
59986;SDS011;46181;51.498;5.392;2023-10-13T21:18:17;12.968;;;6.828001;;
59986;SDS011;46181;51.498;5.392;2023-10-13T21:22:47;15.376;;;7.223999;;
59986;SDS011;46181;51.498;5.392;2023-10-13T21:27:17;16.264;;;7.288001;;
59986;SDS011;46181;51.498;5.392;2023-10-13T21:31:47;12.592;;;6.436;;
59986;SDS011;46181;51.498;5.392;2023-10-13T21:36:17;15.676;;;7;;
59986;SDS011;46181;51.498;5.392;2023-10-13T21:40:47;14.684;;;6.78;;
59986;SDS011;46181;51.498;5.392;2023-10-13T21:45:18;13.64;;;6.848001;;
59986;SDS011;46181;51.498;5.392;2023-10-13T21:49:47;18.644;;;7.715999;;
59986;SDS011;46181;51.498;5.392;2023-10-13T21:54:17;13.508;;;6.752;;
59986;SDS011;46181;51.498;5.392;2023-10-13T21:58:47;14.436;;;6.924;;
59986;SDS011;46181;51.498;5.392;2023-10-13T22:03:17;14.616;;;7.360001;;
59986;SDS011;46181;51.498;5.392;2023-10-13T22:07:47;14.472;;;7.22;;
59986;SDS011;46181;51.498;5.392;2023-10-13T22:12:17;14.652;;;7.544;;
59986;SDS011;46181;51.498;5.392;2023-10-13T22:16:47;17.46;;;7.916;;
59986;SDS011;46181;51.498;5.392;2023-10-13T22:21:17;17.776;;;7.448;;
59986;SDS011;46181;51.498;5.392;2023-10-13T22:25:47;15.084;;;7.288001;;
59986;SDS011;46181;51.498;5.392;2023-10-13T22:30:17;12.84;;;7.928001;;
59986;SDS011;46181;51.498;5.392;2023-10-13T22:34:47;17.416;;;8.067999;;
59986;SDS011;46181;51.498;5.392;2023-10-13T22:39:17;14.816;;;7.228001;;
59986;SDS011;46181;51.498;5.392;2023-10-13T22:43:47;13.832;;;7.436;;
59986;SDS011;46181;51.498;5.392;2023-10-13T22:48:17;13.092;;;7.876;;
59986;SDS011;46181;51.498;5.392;2023-10-13T22:52:47;17.412;;;7.844;;
59986;SDS011;46181;51.498;5.392;2023-10-13T22:57:17;16.956;;;8.228;;
59986;SDS011;46181;51.498;5.392;2023-10-13T23:01:47;16.388;;;7.936;;
59986;SDS011;46181;51.498;5.392;2023-10-13T23:06:17;19.184;;;7.968001;;
59986;SDS011;46181;51.498;5.392;2023-10-13T23:10:47;17.964;;;8.024001;;
59986;SDS011;46181;51.498;5.392;2023-10-13T23:15:17;18.04;;;8.476001;;
59986;SDS011;46181;51.498;5.392;2023-10-13T23:19:47;15.86;;;8.187999;;
59986;SDS011;46181;51.498;5.392;2023-10-13T23:24:17;14.192;;;6.824001;;
59986;SDS011;46181;51.498;5.392;2023-10-13T23:28:47;13.296;;;6.480001;;
59986;SDS011;46181;51.498;5.392;2023-10-13T23:33:17;18.54;;;5.940001;;
59986;SDS011;46181;51.498;5.392;2023-10-13T23:37:47;12.24;;;4.372;;
59986;SDS011;46181;51.498;5.392;2023-10-13T23:42:17;0.2;;;0.2;;
59986;SDS011;46181;51.498;5.392;2023-10-13T23:46:47;0.8;;;0.24;;
59986;SDS011;46181;51.498;5.392;2023-10-13T23:51:17;0.1;;;0.1;;
59986;SDS011;46181;51.498;5.392;2023-10-13T23:55:47;0.812;;;0.268;;
